Terminal Aerodrome Forecast
Issued by NWS Pueblo, CO

Home | Current Version | Previous Version | Text Only | Print | Product List | Glossary On
Versions: 1 2 3 4 5 6 7 8 9 10 11 12 13 14 15 16 17 18 19 20 21 22 23 24 25 26 27 28
000
FTUS45 KPUB 051124
TAFPUB
TAF
KPUB 051124Z 0512/0612 VRB04KT P6SM FEW120 BKN150
     FM051800 21009KT P6SM SCT120 BKN200
     FM052200 17011KT P6SM SCT120 BKN200
     FM060200 28008KT P6SM SCT120 BKN200
     FM060600 31007KT P6SM SCT200=

USA.gov is the U.S. government's official web portal to all federal, state and local government web resources and services.